Springboro, Pennsylvania
Current Conditions -  °F | °C
As of 3:53 AM on Friday 24 Oct 2014 (Local Time) from KGKJ Reporting Station
Haze Haze  
Wind Chill: 38°   Ceiling: Unl
Heat Index: 42°   Visibility: 3mi
Dew Point: 40°   Wind: 6mph
Humidity: 92%   Direction: 270°W
Pressure: 30.06"   Gusts: NA
Location:  41.8°N, 80.37°W
Report Text: KGKJ 240753Z AUTO 27005KT 3SM BR SCT002 SCT021 06/04 A3006 RMK AO2 SLP183 T00560044 TSNO
Loading
Personal Weather Stations






























Interactive Weather Map
Tropical Storm Tracking
New forecast layout! Learn more

10-Day Weather Forecast

Advertisements
Track Severe Weather on mobile